createdAt,value
2018-10-07T00:01:59.252Z,61.99
2018-10-07T00:04:33.070Z,62.24
2018-10-07T00:07:07.384Z,62.22
2018-10-07T00:09:42.462Z,62.14
2018-10-07T00:12:16.498Z,62.30
2018-10-07T00:14:50.092Z,62.12
2018-10-07T00:17:23.823Z,62.26
2018-10-07T00:19:57.958Z,62.55
2018-10-07T00:22:31.731Z,62.42
2018-10-07T00:25:05.386Z,62.63
2018-10-07T00:27:39.032Z,62.99
2018-10-07T00:30:12.700Z,63.62
2018-10-07T00:32:48.460Z,63.45
2018-10-07T00:35:22.287Z,63.60
2018-10-07T00:37:59.489Z,64.84
2018-10-07T00:40:33.303Z,64.94
2018-10-07T00:43:07.024Z,64.46
2018-10-07T00:45:41.228Z,64.72
2018-10-07T00:48:15.067Z,64.33
2018-10-07T00:50:48.660Z,64.24
2018-10-07T00:53:22.361Z,64.10
2018-10-07T00:55:55.980Z,64.19
2018-10-07T00:58:29.737Z,63.51
2018-10-07T01:01:03.423Z,63.73
2018-10-07T01:03:37.040Z,63.81
2018-10-07T01:06:10.695Z,63.48
2018-10-07T01:08:44.366Z,63.41
2018-10-07T01:11:17.932Z,63.22
2018-10-07T01:13:51.576Z,63.17
2018-10-07T01:16:25.302Z,63.08
2018-10-07T01:18:58.937Z,62.64
2018-10-07T01:21:32.628Z,62.84
2018-10-07T01:24:06.503Z,62.96
2018-10-07T01:26:40.109Z,63.45
2018-10-07T01:29:13.788Z,62.95
2018-10-07T01:31:47.527Z,63.46
2018-10-07T01:34:21.166Z,63.39
2018-10-07T01:36:54.900Z,62.98
2018-10-07T01:39:28.555Z,63.53
2018-10-07T01:42:02.218Z,63.43
2018-10-07T01:44:35.836Z,63.21
2018-10-07T01:47:09.501Z,62.71
2018-10-07T01:49:43.223Z,62.94
2018-10-07T01:52:16.864Z,62.67
2018-10-07T01:54:50.585Z,63.50
2018-10-07T01:57:24.309Z,63.26
2018-10-07T01:59:57.963Z,63.39
2018-10-07T02:02:31.650Z,63.58
2018-10-07T02:05:05.350Z,63.35
2018-10-07T02:07:38.987Z,63.77
2018-10-07T02:10:12.618Z,63.41
2018-10-07T02:12:46.327Z,62.93
2018-10-07T02:15:19.998Z,63.13
2018-10-07T02:17:53.647Z,62.88
2018-10-07T02:20:27.636Z,63.77
2018-10-07T02:23:01.305Z,63.19
2018-10-07T02:25:34.899Z,62.65
2018-10-07T02:28:08.547Z,62.84
2018-10-07T02:30:42.226Z,62.88
2018-10-07T02:33:15.906Z,62.93
2018-10-07T02:35:49.539Z,62.65
2018-10-07T02:38:23.162Z,62.59
2018-10-07T02:40:56.758Z,62.66
2018-10-07T02:43:30.428Z,62.57
2018-10-07T02:46:04.174Z,62.57
2018-10-07T02:48:37.882Z,62.97
2018-10-07T02:51:11.995Z,62.81
2018-10-07T02:53:45.639Z,62.80
2018-10-07T02:56:19.264Z,63.07
2018-10-07T02:58:52.920Z,63.43
2018-10-07T03:01:26.554Z,63.21
2018-10-07T03:04:00.279Z,63.61
2018-10-07T03:06:33.911Z,63.35
2018-10-07T03:09:08.852Z,63.49
2018-10-07T03:11:42.597Z,63.39
2018-10-07T03:14:16.236Z,63.95
2018-10-07T03:16:49.870Z,64.15
2018-10-07T03:19:23.532Z,63.84
2018-10-07T03:21:57.204Z,63.96
2018-10-07T03:24:30.907Z,63.69
2018-10-07T03:27:04.534Z,63.77
2018-10-07T03:29:38.371Z,63.39
2018-10-07T03:32:12.011Z,62.76
2018-10-07T03:34:45.767Z,62.42
2018-10-07T03:37:19.501Z,62.17
2018-10-07T03:39:53.166Z,62.61
2018-10-07T03:42:26.823Z,62.61
2018-10-07T03:45:00.453Z,62.31
2018-10-07T03:47:34.099Z,62.61
2018-10-07T03:50:07.783Z,62.38
2018-10-07T03:52:41.429Z,62.67
2018-10-07T03:55:15.079Z,62.95
2018-10-07T03:57:48.690Z,62.58
2018-10-07T04:00:22.401Z,62.44
2018-10-07T04:02:56.163Z,62.63
2018-10-07T04:05:29.831Z,62.24
2018-10-07T04:08:03.461Z,62.28
2018-10-07T04:10:37.177Z,62.09
2018-10-07T04:13:11.128Z,62.01
2018-10-07T04:15:44.857Z,62.24
2018-10-07T04:18:18.593Z,62.21
2018-10-07T04:20:52.251Z,62.36
2018-10-07T04:23:25.880Z,62.49
2018-10-07T04:25:59.790Z,62.38
2018-10-07T04:28:33.400Z,62.23
2018-10-07T04:31:07.174Z,62.26
2018-10-07T04:33:40.862Z,62.37
2018-10-07T04:36:14.781Z,62.01
2018-10-07T04:38:48.444Z,62.23
2018-10-07T04:41:22.102Z,62.22
2018-10-07T04:43:55.760Z,62.05
2018-10-07T04:46:29.432Z,61.93
2018-10-07T04:49:03.191Z,62.04
2018-10-07T04:51:36.997Z,62.26
2018-10-07T04:54:10.630Z,62.26
2018-10-07T04:56:44.278Z,61.97
2018-10-07T04:59:17.912Z,61.97
2018-10-07T05:01:51.661Z,61.81
2018-10-07T05:04:25.346Z,61.83
2018-10-07T05:06:59.053Z,61.75
2018-10-07T05:09:32.833Z,61.70
2018-10-07T05:12:08.941Z,61.83
2018-10-07T05:14:42.748Z,61.75
2018-10-07T05:17:17.849Z,62.02
2018-10-07T05:19:51.538Z,61.70
2018-10-07T05:22:25.236Z,61.62
2018-10-07T05:24:58.859Z,61.89
2018-10-07T05:27:32.503Z,61.85
2018-10-07T05:30:06.170Z,61.78
2018-10-07T05:32:39.789Z,61.43
2018-10-07T05:35:13.423Z,61.23
2018-10-07T05:37:47.040Z,61.04
2018-10-07T05:40:20.800Z,61.27
2018-10-07T05:42:54.390Z,60.65
2018-10-07T05:45:28.031Z,60.41
2018-10-07T05:48:01.735Z,60.68
2018-10-07T05:50:35.374Z,60.90
2018-10-07T05:53:08.991Z,60.85
2018-10-07T05:55:42.857Z,60.94
2018-10-07T05:58:16.559Z,61.05
2018-10-07T06:00:50.557Z,60.79
2018-10-07T06:03:40.726Z,60.63
2018-10-07T06:06:14.431Z,60.60
2018-10-07T06:08:48.325Z,60.60
2018-10-07T06:11:21.973Z,60.81
2018-10-07T06:13:55.735Z,60.99
2018-10-07T06:16:29.506Z,60.78
2018-10-07T06:19:03.173Z,60.50
2018-10-07T06:21:37.106Z,60.73
2018-10-07T06:24:10.813Z,60.55
2018-10-07T06:26:44.602Z,60.32
2018-10-07T06:29:18.385Z,60.20
2018-10-07T06:31:52.381Z,60.02
2018-10-07T06:34:26.132Z,59.96
2018-10-07T06:37:00.013Z,59.59
2018-10-07T06:39:33.820Z,59.81
2018-10-07T06:42:07.659Z,59.87
2018-10-07T06:44:41.457Z,59.51
2018-10-07T06:47:15.153Z,59.71
2018-10-07T06:49:48.913Z,59.75
2018-10-07T06:52:22.531Z,58.96
2018-10-07T06:54:56.173Z,59.39
2018-10-07T06:57:30.042Z,58.93
2018-10-07T07:00:03.737Z,58.51
2018-10-07T07:02:37.448Z,58.84
2018-10-07T07:05:11.183Z,58.25
2018-10-07T07:07:44.828Z,58.20
2018-10-07T07:10:18.456Z,58.24
2018-10-07T07:12:52.147Z,58.21
2018-10-07T07:15:25.771Z,57.83
2018-10-07T07:17:59.384Z,58.51
2018-10-07T07:20:33.006Z,57.86
2018-10-07T07:23:06.634Z,57.92
2018-10-07T07:25:40.253Z,58.14
2018-10-07T07:28:13.925Z,57.85
2018-10-07T07:30:47.659Z,57.69
2018-10-07T07:33:21.324Z,56.80
2018-10-07T07:35:54.967Z,57.33
2018-10-07T07:38:28.607Z,56.82
2018-10-07T07:41:02.277Z,56.66
2018-10-07T07:43:36.016Z,56.45
2018-10-07T07:46:09.773Z,56.61
2018-10-07T07:48:43.399Z,56.51
2018-10-07T07:51:17.081Z,56.04
2018-10-07T07:53:50.717Z,55.88
2018-10-07T07:56:24.369Z,55.89
2018-10-07T07:58:58.002Z,55.35
2018-10-07T08:01:31.656Z,55.33
2018-10-07T08:04:05.364Z,55.80
2018-10-07T08:06:38.998Z,55.46
2018-10-07T08:09:12.632Z,54.53
2018-10-07T08:11:46.240Z,54.35
2018-10-07T08:14:19.970Z,54.74
2018-10-07T08:16:53.687Z,53.87
2018-10-07T08:19:27.340Z,54.02
2018-10-07T08:22:01.038Z,53.61
2018-10-07T08:24:34.620Z,53.05
2018-10-07T08:27:08.270Z,53.07
2018-10-07T08:29:41.913Z,52.84
2018-10-07T08:32:15.615Z,52.80
2018-10-07T08:34:49.297Z,52.62
2018-10-07T08:37:22.875Z,52.13
2018-10-07T08:39:56.479Z,52.19
2018-10-07T08:42:30.115Z,52.20
2018-10-07T08:45:03.768Z,51.74
2018-10-07T08:47:37.559Z,51.15
2018-10-07T08:50:11.320Z,51.17
2018-10-07T08:52:44.979Z,51.02
2018-10-07T08:55:18.637Z,50.55
2018-10-07T08:57:53.137Z,50.52
2018-10-07T09:00:26.870Z,49.86
2018-10-07T09:03:00.667Z,50.30
2018-10-07T09:05:34.641Z,50.54
2018-10-07T09:08:08.422Z,50.87
2018-10-07T09:10:42.028Z,50.62
2018-10-07T09:13:15.885Z,50.09
2018-10-07T09:15:49.572Z,49.58
2018-10-07T09:18:23.237Z,49.34
2018-10-07T09:20:56.896Z,48.77
2018-10-07T09:23:30.659Z,49.20
2018-10-07T09:26:04.648Z,49.17
2018-10-07T09:28:38.499Z,49.13
2018-10-07T09:31:12.246Z,48.66
2018-10-07T09:33:45.902Z,48.32
2018-10-07T09:36:19.677Z,47.67
2018-10-07T09:38:53.379Z,47.95
2018-10-07T09:41:26.969Z,48.16
2018-10-07T09:44:00.591Z,47.44
2018-10-07T09:46:34.295Z,46.14
2018-10-07T09:49:08.124Z,46.69
2018-10-07T09:51:41.817Z,46.98
2018-10-07T09:54:15.474Z,46.60
2018-10-07T09:56:49.059Z,45.44
2018-10-07T09:59:22.702Z,46.15
2018-10-07T10:01:56.695Z,45.71
2018-10-07T10:04:30.397Z,46.59
2018-10-07T10:07:03.976Z,45.99
2018-10-07T10:09:37.703Z,45.46
2018-10-07T10:12:11.342Z,45.32
2018-10-07T10:14:45.013Z,44.47
2018-10-07T10:17:20.031Z,43.57
2018-10-07T10:19:56.208Z,42.56
2018-10-07T10:23:11.806Z,42.22
2018-10-07T10:28:13.203Z,42.15
2018-10-07T10:31:02.086Z,41.41
2018-10-07T10:33:38.853Z,40.79
2018-10-07T10:37:03.067Z,40.90
2018-10-07T10:39:54.056Z,41.55
2018-10-07T10:43:08.290Z,41.71
2018-10-07T10:46:49.498Z,41.97
2018-10-07T10:49:30.424Z,41.65
2018-10-07T10:52:26.017Z,42.42
2018-10-07T10:55:07.128Z,43.38
2018-10-07T10:57:44.402Z,42.30
2018-10-07T11:00:33.100Z,42.63
2018-10-07T11:05:21.688Z,42.24
2018-10-07T11:09:07.096Z,42.22
2018-10-07T11:12:17.004Z,42.58
2018-10-07T11:15:04.350Z,42.29
2018-10-07T11:17:50.288Z,42.93
2018-10-07T11:20:28.101Z,42.79
2018-10-07T11:23:14.743Z,41.99
2018-10-07T11:28:11.028Z,41.63
2018-10-07T11:31:01.003Z,42.15
2018-10-07T11:33:45.861Z,40.76
2018-10-07T11:36:28.267Z,41.05
2018-10-07T11:39:10.887Z,40.97
2018-10-07T11:42:00.988Z,39.41
2018-10-07T11:44:57.423Z,39.11
2018-10-07T11:47:39.795Z,39.35
2018-10-07T11:50:22.613Z,39.94
2018-10-07T11:53:11.202Z,39.56
2018-10-07T11:55:44.903Z,38.77
2018-10-07T11:58:18.503Z,38.63
2018-10-07T12:00:52.112Z,38.99
2018-10-07T12:03:25.743Z,37.80
2018-10-07T12:05:59.494Z,38.42
2018-10-07T12:08:33.205Z,38.49
2018-10-07T12:11:06.879Z,38.31
2018-10-07T12:13:40.495Z,37.29
2018-10-07T12:16:14.169Z,36.82
2018-10-07T12:18:48.179Z,36.65
2018-10-07T12:21:21.853Z,37.46
2018-10-07T12:23:55.530Z,37.54
2018-10-07T12:26:29.701Z,38.27
2018-10-07T12:29:03.696Z,39.17
2018-10-07T12:31:37.669Z,38.33
2018-10-07T12:34:11.913Z,38.62
2018-10-07T12:36:45.791Z,37.94
2018-10-07T12:39:20.008Z,38.12
2018-10-07T12:41:53.630Z,38.39
2018-10-07T12:44:27.310Z,38.23
2018-10-07T12:47:01.561Z,38.95
2018-10-07T12:49:35.249Z,39.07
2018-10-07T12:52:08.929Z,38.87
2018-10-07T12:54:42.631Z,38.97
2018-10-07T12:57:16.241Z,38.97
2018-10-07T12:59:49.932Z,39.28
2018-10-07T13:02:23.543Z,39.48
2018-10-07T13:04:57.508Z,38.80
2018-10-07T13:07:33.629Z,38.57
2018-10-07T13:10:07.661Z,39.24
2018-10-07T13:12:41.653Z,39.22
2018-10-07T13:15:15.566Z,39.24
2018-10-07T13:17:49.355Z,39.34
2018-10-07T13:20:23.101Z,39.47
2018-10-07T13:22:56.733Z,39.26
2018-10-07T13:25:30.523Z,38.92
2018-10-07T13:28:04.166Z,38.94
2018-10-07T13:30:37.768Z,38.80
2018-10-07T13:33:11.387Z,39.00
2018-10-07T13:35:44.949Z,39.17
2018-10-07T13:38:18.580Z,39.40
2018-10-07T13:40:52.149Z,39.19
2018-10-07T13:43:25.877Z,38.86
2018-10-07T13:46:00.068Z,39.66
2018-10-07T13:48:33.691Z,40.03
2018-10-07T13:51:07.352Z,39.29
2018-10-07T13:53:41.070Z,39.27
2018-10-07T13:56:14.655Z,39.24
2018-10-07T13:58:48.290Z,40.07
2018-10-07T14:01:22.006Z,40.26
2018-10-07T14:03:55.685Z,39.93
2018-10-07T14:06:29.306Z,39.10
2018-10-07T14:09:03.106Z,39.51
2018-10-07T14:11:37.149Z,39.98
2018-10-07T14:14:11.407Z,39.60
2018-10-07T14:16:45.155Z,40.09
2018-10-07T14:19:18.800Z,40.37
2018-10-07T14:21:52.679Z,39.31
2018-10-07T14:24:26.461Z,39.59
2018-10-07T14:27:00.503Z,39.95
2018-10-07T14:29:34.566Z,40.25
2018-10-07T14:32:08.784Z,38.89
2018-10-07T14:34:42.581Z,39.90
2018-10-07T14:37:16.503Z,39.97
2018-10-07T14:39:50.299Z,39.36
2018-10-07T14:42:24.127Z,39.41
2018-10-07T14:44:57.938Z,39.74
2018-10-07T14:47:32.420Z,40.19
2018-10-07T14:50:06.220Z,40.14
2018-10-07T14:52:39.806Z,40.60
2018-10-07T14:55:13.554Z,39.39
2018-10-07T14:57:47.225Z,39.96
2018-10-07T15:00:21.527Z,40.50
2018-10-07T15:02:56.084Z,40.08
2018-10-07T15:05:30.178Z,40.50
2018-10-07T15:08:03.788Z,42.04
2018-10-07T15:10:37.430Z,41.08
2018-10-07T15:13:11.080Z,41.26
2018-10-07T15:15:44.728Z,40.69
2018-10-07T15:18:18.453Z,40.91
2018-10-07T15:20:52.145Z,40.71
2018-10-07T15:23:25.736Z,41.29
2018-10-07T15:25:59.352Z,41.74
2018-10-07T15:28:32.962Z,42.63
2018-10-07T15:31:06.579Z,41.30
2018-10-07T15:33:40.209Z,41.55
2018-10-07T15:36:13.901Z,41.70
2018-10-07T15:38:47.490Z,40.65
2018-10-07T15:41:21.133Z,40.50
2018-10-07T15:43:54.747Z,42.37
2018-10-07T15:46:28.425Z,42.36
2018-10-07T15:49:02.065Z,41.43
2018-10-07T15:51:35.737Z,41.48
2018-10-07T15:54:09.291Z,42.84
2018-10-07T15:56:42.960Z,42.63
2018-10-07T15:59:16.534Z,42.30
2018-10-07T16:01:50.195Z,42.47
2018-10-07T16:04:23.830Z,42.94
2018-10-07T16:07:09.526Z,43.17
2018-10-07T16:09:43.208Z,43.55
2018-10-07T16:12:16.825Z,43.85
2018-10-07T16:14:50.474Z,43.76
2018-10-07T16:17:24.070Z,43.83
2018-10-07T16:19:57.685Z,44.29
2018-10-07T16:22:31.329Z,43.58
2018-10-07T16:25:04.964Z,43.67
2018-10-07T16:27:38.634Z,44.01
2018-10-07T16:30:12.338Z,44.87
2018-10-07T16:32:45.969Z,45.11
2018-10-07T16:35:19.593Z,45.53
2018-10-07T16:37:53.710Z,45.37
2018-10-07T16:40:27.360Z,45.01
2018-10-07T16:43:00.978Z,45.00
2018-10-07T16:45:34.627Z,45.67
2018-10-07T16:48:08.248Z,45.79
2018-10-07T16:50:42.000Z,45.76
2018-10-07T16:53:15.663Z,46.29
2018-10-07T16:55:49.628Z,46.06
2018-10-07T16:58:23.245Z,46.42
2018-10-07T17:00:56.878Z,46.89
2018-10-07T17:03:30.537Z,47.12
2018-10-07T17:06:04.177Z,47.36
2018-10-07T17:08:37.770Z,47.27
2018-10-07T17:11:11.377Z,47.12
2018-10-07T17:13:45.036Z,47.54
2018-10-07T17:16:18.726Z,47.87
2018-10-07T17:18:52.466Z,48.08
2018-10-07T17:21:26.129Z,48.11
2018-10-07T17:24:00.152Z,48.69
2018-10-07T17:26:33.797Z,48.92
2018-10-07T17:29:07.423Z,48.74
2018-10-07T17:31:41.076Z,48.94
2018-10-07T17:34:14.706Z,49.08
2018-10-07T17:36:48.323Z,48.83
2018-10-07T17:39:21.924Z,49.18
2018-10-07T17:41:55.529Z,49.07
2018-10-07T17:44:29.151Z,49.17
2018-10-07T17:47:02.781Z,49.67
2018-10-07T17:49:36.510Z,49.87
2018-10-07T17:52:10.127Z,50.20
2018-10-07T17:54:43.704Z,50.75
2018-10-07T17:57:17.326Z,50.37
2018-10-07T17:59:50.930Z,50.57
2018-10-07T18:02:24.600Z,50.98
2018-10-07T18:04:58.237Z,51.10
2018-10-07T18:07:32.027Z,51.36
2018-10-07T18:10:05.677Z,51.81
2018-10-07T18:12:39.749Z,51.91
2018-10-07T18:15:13.423Z,51.66
2018-10-07T18:17:47.109Z,52.10
2018-10-07T18:20:20.704Z,52.35
2018-10-07T18:22:54.370Z,52.41
2018-10-07T18:25:28.015Z,52.28
2018-10-07T18:28:01.674Z,52.39
2018-10-07T18:30:35.319Z,52.29
2018-10-07T18:33:09.106Z,52.67
2018-10-07T18:35:42.702Z,52.81
2018-10-07T18:38:16.341Z,52.50
2018-10-07T18:40:49.952Z,52.32
2018-10-07T18:43:23.621Z,52.50
2018-10-07T18:45:57.296Z,52.51
2018-10-07T18:48:31.518Z,52.37
2018-10-07T18:51:05.214Z,52.68
2018-10-07T18:53:38.919Z,52.72
2018-10-07T18:56:12.534Z,52.95
2018-10-07T18:58:46.308Z,52.57
2018-10-07T19:01:19.927Z,52.48
2018-10-07T19:03:53.572Z,52.43
2018-10-07T19:06:27.265Z,52.81
2018-10-07T19:09:00.891Z,52.54
2018-10-07T19:11:34.522Z,52.60
2018-10-07T19:14:08.349Z,53.05
2018-10-07T19:16:42.065Z,52.93
2018-10-07T19:19:15.745Z,52.82
2018-10-07T19:21:54.186Z,53.03
2018-10-07T19:24:27.932Z,52.99
2018-10-07T19:27:01.613Z,53.11
2018-10-07T19:29:35.472Z,53.32
2018-10-07T19:32:09.244Z,53.40
2018-10-07T19:34:42.987Z,53.61
2018-10-07T19:37:16.766Z,53.79
2018-10-07T19:39:50.300Z,54.07
2018-10-07T19:42:23.950Z,54.03
2018-10-07T19:44:57.831Z,53.96
2018-10-07T19:47:31.489Z,54.42
2018-10-07T19:50:05.176Z,54.68
2018-10-07T19:52:38.919Z,54.89
2018-10-07T19:55:13.117Z,54.70
2018-10-07T19:57:47.503Z,54.96
2018-10-07T20:00:22.317Z,55.13
2018-10-07T20:02:56.096Z,55.22
2018-10-07T20:05:29.967Z,54.95
2018-10-07T20:08:04.218Z,55.03
2018-10-07T20:10:37.813Z,55.12
2018-10-07T20:13:11.787Z,55.13
2018-10-07T20:15:45.509Z,55.14
2018-10-07T20:18:19.908Z,55.30
2018-10-07T20:20:54.330Z,55.20
2018-10-07T20:23:27.991Z,55.45
2018-10-07T20:26:01.644Z,55.36
2018-10-07T20:28:35.666Z,55.13
2018-10-07T20:31:09.303Z,55.34
2018-10-07T20:33:42.972Z,55.42
2018-10-07T20:36:16.586Z,55.54
2018-10-07T20:38:50.563Z,55.62
2018-10-07T20:41:24.349Z,55.40
2018-10-07T20:43:58.011Z,55.79
2018-10-07T20:46:32.025Z,55.56
2018-10-07T20:49:05.773Z,55.88
2018-10-07T20:51:39.470Z,55.62
2018-10-07T20:54:13.429Z,55.72
2018-10-07T20:56:47.337Z,55.80
2018-10-07T20:59:22.118Z,56.02
2018-10-07T21:01:55.707Z,56.14
2018-10-07T21:04:30.679Z,55.93
2018-10-07T21:07:04.746Z,55.59
2018-10-07T21:09:38.439Z,55.99
2018-10-07T21:12:12.101Z,56.13
2018-10-07T21:14:45.842Z,56.05
2018-10-07T21:17:19.880Z,56.12
2018-10-07T21:19:53.613Z,56.00
2018-10-07T21:22:27.739Z,56.24
2018-10-07T21:25:01.372Z,56.08
2018-10-07T21:27:34.989Z,56.05
2018-10-07T21:30:08.663Z,56.15
2018-10-07T21:32:42.375Z,56.04
2018-10-07T21:35:16.138Z,56.29
2018-10-07T21:37:51.851Z,56.29
2018-10-07T21:40:25.700Z,56.55
2018-10-07T21:42:59.674Z,56.34
2018-10-07T21:45:33.358Z,56.45
2018-10-07T21:48:06.769Z,56.52
2018-10-07T21:50:40.393Z,56.74
2018-10-07T21:53:14.050Z,56.89
2018-10-07T21:55:47.989Z,56.79
2018-10-07T21:58:21.638Z,56.60
2018-10-07T22:00:55.278Z,56.80
2018-10-07T22:03:28.958Z,56.81
2018-10-07T22:06:04.289Z,57.00
2018-10-07T22:08:39.576Z,57.21
2018-10-07T22:11:14.917Z,56.83
2018-10-07T22:13:48.726Z,57.24
2018-10-07T22:16:22.390Z,57.15
2018-10-07T22:18:56.040Z,57.41
2018-10-07T22:21:29.857Z,57.18
2018-10-07T22:24:03.495Z,56.74
2018-10-07T22:26:37.862Z,56.91
2018-10-07T22:29:12.492Z,56.73
2018-10-07T22:31:47.380Z,57.04
2018-10-07T22:34:21.774Z,57.08
2018-10-07T22:36:56.500Z,57.11
2018-10-07T22:39:30.231Z,57.13
2018-10-07T22:42:04.069Z,57.48
2018-10-07T22:44:38.374Z,57.28
2018-10-07T22:47:11.957Z,57.65
2018-10-07T22:49:45.894Z,57.35
2018-10-07T22:52:19.507Z,57.77
2018-10-07T22:54:53.171Z,57.73
2018-10-07T22:57:26.807Z,57.76
2018-10-07T23:00:00.392Z,57.96
2018-10-07T23:02:33.997Z,57.84
2018-10-07T23:05:07.619Z,57.74
2018-10-07T23:07:41.324Z,57.87
2018-10-07T23:10:14.982Z,57.78
2018-10-07T23:12:48.623Z,57.53
2018-10-07T23:15:22.341Z,57.95
2018-10-07T23:17:55.940Z,57.82
2018-10-07T23:20:29.577Z,58.17
2018-10-07T23:23:03.242Z,58.14
2018-10-07T23:25:36.864Z,58.27
2018-10-07T23:28:10.511Z,58.71
2018-10-07T23:30:44.132Z,58.78
2018-10-07T23:33:17.669Z,58.71
2018-10-07T23:35:51.289Z,58.82
2018-10-07T23:38:25.322Z,58.72
2018-10-07T23:40:59.728Z,58.95
2018-10-07T23:43:34.374Z,58.98
2018-10-07T23:46:09.188Z,59.20
2018-10-07T23:48:42.834Z,58.77
2018-10-07T23:51:16.518Z,58.92
2018-10-07T23:53:50.120Z,58.81
2018-10-07T23:56:23.769Z,59.01
2018-10-07T23:58:57.506Z,59.02
